createdAt,value
2018-05-13T00:00:54.524Z,8.20
2018-05-13T00:03:21.453Z,8.20
2018-05-13T00:05:47.626Z,8.20
2018-05-13T00:08:13.807Z,8.20
2018-05-13T00:10:39.986Z,8.30
2018-05-13T00:13:06.169Z,8.30
2018-05-13T00:15:32.332Z,8.20
2018-05-13T00:17:59.233Z,7.90
2018-05-13T00:20:25.416Z,7.90
2018-05-13T00:22:52.334Z,8.00
2018-05-13T00:25:18.552Z,7.90
2018-05-13T00:27:44.723Z,8.00
2018-05-13T00:30:11.655Z,7.90
2018-05-13T00:32:37.842Z,7.80
2018-05-13T00:35:04.018Z,7.80
2018-05-13T00:37:30.214Z,7.70
2018-05-13T00:39:56.386Z,7.70
2018-05-13T00:42:22.593Z,7.70
2018-05-13T00:44:48.769Z,7.70
2018-05-13T00:47:15.850Z,7.80
2018-05-13T00:49:42.046Z,7.80
2018-05-13T00:52:08.222Z,7.80
2018-05-13T00:54:46.809Z,7.80
2018-05-13T00:57:13.711Z,7.80
2018-05-13T00:59:39.887Z,7.70
2018-05-13T01:02:06.800Z,7.70
2018-05-13T01:04:33.717Z,7.60
2018-05-13T01:06:59.921Z,7.60
2018-05-13T01:09:26.838Z,7.50
2018-05-13T01:11:53.781Z,7.40
2018-05-13T01:14:19.961Z,7.40
2018-05-13T01:16:46.877Z,7.20
2018-05-13T01:19:13.077Z,7.10
2018-05-13T01:21:39.249Z,7.20
2018-05-13T01:24:05.437Z,7.40
2018-05-13T01:26:31.607Z,7.60
2018-05-13T01:28:57.781Z,7.80
2018-05-13T01:31:24.720Z,7.90
2018-05-13T01:33:51.644Z,7.80
2018-05-13T01:36:17.821Z,7.70
2018-05-13T01:38:43.995Z,7.80
2018-05-13T01:41:10.173Z,7.70
2018-05-13T01:43:37.106Z,7.40
2018-05-13T01:46:04.066Z,7.30
2018-05-13T01:48:30.985Z,7.20
2018-05-13T01:50:57.163Z,7.20
2018-05-13T01:53:23.326Z,7.20
2018-05-13T01:55:49.507Z,7.20
2018-05-13T01:58:16.410Z,7.10
2018-05-13T02:00:42.593Z,7.00
2018-05-13T02:03:09.491Z,7.10
2018-05-13T02:05:35.670Z,7.00
2018-05-13T02:08:02.627Z,7.20
2018-05-13T02:10:29.529Z,7.20
2018-05-13T02:12:55.692Z,7.10
2018-05-13T02:15:21.865Z,7.20
2018-05-13T02:17:48.042Z,7.10
2018-05-13T02:20:14.247Z,7.10
2018-05-13T02:22:40.420Z,7.10
2018-05-13T02:25:06.593Z,7.10
2018-05-13T02:27:32.778Z,7.10
2018-05-13T02:29:58.957Z,7.10
2018-05-13T02:32:25.169Z,7.10
2018-05-13T02:34:52.078Z,7.00
2018-05-13T02:37:18.261Z,6.90
2018-05-13T02:39:44.441Z,7.10
2018-05-13T02:42:11.391Z,7.10
2018-05-13T02:44:37.638Z,7.10
2018-05-13T02:47:03.813Z,7.20
2018-05-13T02:49:29.982Z,7.20
2018-05-13T02:51:56.156Z,7.20
2018-05-13T02:54:23.059Z,7.30
2018-05-13T02:56:49.450Z,7.30
2018-05-13T02:59:16.370Z,7.30
2018-05-13T03:01:42.543Z,7.30
2018-05-13T03:04:08.726Z,7.30
2018-05-13T03:06:34.889Z,7.30
2018-05-13T03:09:01.850Z,7.30
2018-05-13T03:11:28.761Z,7.20
2018-05-13T03:13:55.663Z,7.10
2018-05-13T03:16:21.861Z,7.10
2018-05-13T03:18:48.033Z,7.20
2018-05-13T03:21:14.254Z,7.30
2018-05-13T03:23:40.422Z,7.40
2018-05-13T03:26:07.357Z,7.40
2018-05-13T03:28:33.540Z,7.40
2018-05-13T03:30:59.720Z,7.50
2018-05-13T03:33:25.900Z,7.60
2018-05-13T03:35:52.073Z,7.70
2018-05-13T03:38:18.253Z,7.80
2018-05-13T03:40:44.442Z,8.00
2018-05-13T03:43:10.675Z,8.20
2018-05-13T03:45:36.858Z,8.50
2018-05-13T03:48:03.215Z,8.80
2018-05-13T03:50:30.114Z,9.00
2018-05-13T03:52:56.281Z,9.00
2018-05-13T03:55:22.457Z,9.40
2018-05-13T03:57:48.803Z,9.80
2018-05-13T04:00:14.981Z,10.30
2018-05-13T04:02:41.170Z,10.80
2018-05-13T04:05:07.344Z,11.40
2018-05-13T04:07:39.712Z,12.20
2018-05-13T04:10:18.201Z,12.90
2018-05-13T04:12:56.688Z,13.20
2018-05-13T04:15:22.879Z,13.40
2018-05-13T04:17:49.051Z,13.40
2018-05-13T04:20:15.261Z,13.60
2018-05-13T04:22:42.183Z,14.40
2018-05-13T04:25:08.362Z,14.40
2018-05-13T04:27:34.537Z,14.60
2018-05-13T04:30:00.706Z,15.10
2018-05-13T04:32:27.645Z,16.30
2018-05-13T04:34:53.809Z,16.20
2018-05-13T04:37:19.985Z,16.60
2018-05-13T04:39:46.180Z,16.90
2018-05-13T04:42:12.383Z,17.30
2018-05-13T04:44:39.313Z,17.70
2018-05-13T04:47:05.533Z,17.60
2018-05-13T04:49:31.727Z,17.80
2018-05-13T04:51:57.922Z,18.30
2018-05-13T04:54:24.897Z,18.60
2018-05-13T04:56:51.856Z,18.80
2018-05-13T04:59:18.058Z,18.70
2018-05-13T05:01:44.314Z,18.80
2018-05-13T05:04:10.509Z,18.50
2018-05-13T05:06:36.704Z,18.60
2018-05-13T05:09:03.034Z,18.60
2018-05-13T05:11:29.161Z,18.80
2018-05-13T05:13:55.387Z,19.00
2018-05-13T05:16:21.584Z,18.80
2018-05-13T05:18:47.758Z,19.10
2018-05-13T05:21:13.955Z,19.10
2018-05-13T05:23:40.895Z,19.70
2018-05-13T05:26:07.113Z,19.70
2018-05-13T05:28:33.318Z,19.70
2018-05-13T05:30:59.516Z,19.80
2018-05-13T05:33:26.450Z,19.80
2018-05-13T05:35:53.386Z,19.50
2018-05-13T05:38:19.609Z,19.50
2018-05-13T05:40:45.828Z,19.70
2018-05-13T05:43:12.024Z,19.90
2018-05-13T05:45:38.990Z,21.00
2018-05-13T05:48:05.195Z,20.90
2018-05-13T05:50:32.203Z,21.00
2018-05-13T05:52:58.398Z,20.90
2018-05-13T05:55:24.607Z,21.20
2018-05-13T05:57:51.544Z,21.70
2018-05-13T06:00:18.674Z,21.70
2018-05-13T06:02:44.925Z,21.80
2018-05-13T06:05:11.114Z,22.20
2018-05-13T06:07:37.326Z,22.60
2018-05-13T06:10:03.548Z,22.80
2018-05-13T06:12:29.740Z,22.60
2018-05-13T06:14:55.972Z,22.70
2018-05-13T06:17:22.162Z,22.40
2018-05-13T06:19:49.172Z,22.60
2018-05-13T06:22:15.382Z,22.50
2018-05-13T06:24:42.326Z,21.90
2018-05-13T06:27:08.536Z,21.80
2018-05-13T06:29:34.724Z,22.20
2018-05-13T06:32:00.926Z,22.40
2018-05-13T06:34:27.138Z,23.00
2018-05-13T06:36:53.326Z,23.40
2018-05-13T06:39:19.529Z,23.70
2018-05-13T06:41:45.733Z,23.30
2018-05-13T06:44:11.941Z,22.40
2018-05-13T06:46:38.895Z,21.60
2018-05-13T06:49:05.826Z,20.90
2018-05-13T06:51:32.114Z,20.80
2018-05-13T06:53:59.004Z,19.90
2018-05-13T06:56:25.241Z,19.90
2018-05-13T06:58:51.425Z,19.60
2018-05-13T07:01:17.613Z,19.10
2018-05-13T07:03:43.805Z,18.90
2018-05-13T07:06:09.976Z,18.80
2018-05-13T07:08:36.184Z,18.80
2018-05-13T07:11:02.387Z,18.80
2018-05-13T07:13:28.578Z,18.80
2018-05-13T07:15:54.810Z,19.00
2018-05-13T07:18:21.014Z,19.10
2018-05-13T07:20:47.232Z,19.20
2018-05-13T07:23:13.439Z,19.20
2018-05-13T07:25:40.379Z,19.20
2018-05-13T07:28:07.299Z,19.30
2018-05-13T07:30:33.473Z,19.30
2018-05-13T07:33:00.439Z,19.10
2018-05-13T07:35:26.622Z,19.10
2018-05-13T07:37:52.822Z,19.00
2018-05-13T07:40:19.018Z,19.00
2018-05-13T07:42:45.955Z,19.10
2018-05-13T07:45:12.921Z,19.20
2018-05-13T07:47:39.855Z,19.50
2018-05-13T07:50:06.821Z,19.80
2018-05-13T07:52:33.013Z,19.80
2018-05-13T07:54:59.206Z,20.20
2018-05-13T07:57:25.401Z,20.10
2018-05-13T07:59:52.333Z,20.40
2018-05-13T08:02:18.538Z,20.40
2018-05-13T08:04:44.762Z,20.10
2018-05-13T08:07:10.982Z,20.20
2018-05-13T08:09:37.177Z,20.20
2018-05-13T08:12:03.376Z,20.30
2018-05-13T08:14:29.584Z,20.40
2018-05-13T08:16:55.826Z,20.50
2018-05-13T08:19:22.026Z,20.80
2018-05-13T08:21:49.002Z,20.80
2018-05-13T08:24:15.279Z,20.80
2018-05-13T08:26:42.222Z,20.20
2018-05-13T08:29:08.417Z,20.10
2018-05-13T08:31:34.607Z,20.40
2018-05-13T08:34:01.550Z,21.30
2018-05-13T08:36:27.741Z,21.30
2018-05-13T08:38:53.949Z,21.60
2018-05-13T08:41:20.915Z,21.30
2018-05-13T08:43:47.124Z,21.20
2018-05-13T08:46:14.057Z,21.10
2018-05-13T08:48:40.294Z,21.00
2018-05-13T08:51:06.503Z,20.90
2018-05-13T08:53:33.467Z,21.10
2018-05-13T08:55:59.702Z,21.10
2018-05-13T08:58:25.915Z,21.10
2018-05-13T09:00:52.111Z,21.00
2018-05-13T09:03:18.317Z,20.90
2018-05-13T09:05:45.288Z,21.00
2018-05-13T09:08:11.495Z,20.90
2018-05-13T09:10:38.437Z,21.20
2018-05-13T09:13:05.402Z,21.40
2018-05-13T09:15:32.338Z,21.60
2018-05-13T09:17:58.539Z,21.50
2018-05-13T09:20:24.733Z,21.70
2018-05-13T09:22:51.653Z,22.10
2018-05-13T09:25:17.836Z,22.10
2018-05-13T09:27:44.049Z,22.10
2018-05-13T09:30:10.274Z,22.10
2018-05-13T09:32:37.216Z,21.80
2018-05-13T09:35:04.196Z,21.70
2018-05-13T09:37:30.394Z,21.60
2018-05-13T09:39:57.335Z,21.60
2018-05-13T09:42:24.275Z,21.80
2018-05-13T09:44:50.478Z,21.70
2018-05-13T09:47:16.693Z,21.80
2018-05-13T09:49:42.856Z,21.80
2018-05-13T09:52:09.045Z,21.80
2018-05-13T09:54:36.009Z,21.90
2018-05-13T09:57:02.202Z,21.90
2018-05-13T09:59:29.161Z,22.00
2018-05-13T10:01:56.103Z,22.00
2018-05-13T10:04:22.307Z,22.00
2018-05-13T10:06:48.538Z,22.00
2018-05-13T10:09:15.479Z,22.10
2018-05-13T10:11:41.709Z,22.10
2018-05-13T10:14:07.941Z,22.10
2018-05-13T10:16:35.041Z,22.10
2018-05-13T10:19:08.050Z,22.20
2018-05-13T10:21:35.022Z,22.20
2018-05-13T10:24:01.266Z,22.10
2018-05-13T10:26:27.465Z,22.20
2018-05-13T10:28:54.409Z,22.50
2018-05-13T10:31:21.398Z,22.40
2018-05-13T10:33:47.601Z,22.40
2018-05-13T10:36:14.566Z,22.40
2018-05-13T10:38:40.753Z,22.40
2018-05-13T10:41:06.952Z,22.40
2018-05-13T10:43:33.163Z,22.50
2018-05-13T10:45:59.355Z,22.50
2018-05-13T10:48:25.549Z,22.40
2018-05-13T10:50:51.736Z,22.50
2018-05-13T10:53:19.146Z,22.50
2018-05-13T10:55:45.362Z,22.50
2018-05-13T10:58:11.561Z,22.60
2018-05-13T11:00:38.493Z,22.80
2018-05-13T11:03:04.711Z,22.80
2018-05-13T11:05:30.913Z,22.90
2018-05-13T11:07:57.115Z,22.80
2018-05-13T11:10:24.137Z,22.50
2018-05-13T11:12:51.019Z,22.70
2018-05-13T11:15:18.178Z,22.80
2018-05-13T11:17:45.116Z,22.80
2018-05-13T11:20:12.063Z,22.90
2018-05-13T11:22:39.037Z,22.90
2018-05-13T11:25:05.237Z,22.90
2018-05-13T11:27:31.453Z,22.80
2018-05-13T11:29:59.134Z,22.80
2018-05-13T11:32:26.127Z,22.70
2018-05-13T11:34:52.311Z,22.70
2018-05-13T11:37:18.522Z,22.70
2018-05-13T11:39:44.736Z,22.70
2018-05-13T11:42:10.950Z,22.70
2018-05-13T11:44:37.173Z,22.80
2018-05-13T11:47:04.131Z,22.90
2018-05-13T11:49:30.358Z,22.80
2018-05-13T11:51:57.289Z,22.90
2018-05-13T11:54:24.261Z,22.80
2018-05-13T11:56:51.220Z,23.00
2018-05-13T11:59:17.408Z,22.90
2018-05-13T12:01:43.597Z,23.10
2018-05-13T12:04:09.781Z,22.90
2018-05-13T12:06:36.007Z,22.80
2018-05-13T12:09:02.252Z,22.90
2018-05-13T12:11:28.445Z,23.00
2018-05-13T12:13:54.632Z,22.90
2018-05-13T12:16:21.566Z,22.80
2018-05-13T12:18:47.778Z,22.80
2018-05-13T12:21:13.978Z,22.80
2018-05-13T12:23:40.207Z,22.90
2018-05-13T12:26:06.419Z,23.10
2018-05-13T12:28:32.642Z,23.20
2018-05-13T12:30:59.571Z,23.10
2018-05-13T12:33:25.766Z,23.10
2018-05-13T12:35:51.993Z,23.30
2018-05-13T12:38:18.201Z,23.40
2018-05-13T12:40:45.164Z,23.20
2018-05-13T12:43:11.358Z,23.10
2018-05-13T12:45:37.547Z,23.10
2018-05-13T12:48:03.765Z,23.30
2018-05-13T12:50:29.949Z,23.40
2018-05-13T12:52:56.146Z,23.30
2018-05-13T12:55:22.390Z,23.20
2018-05-13T12:57:48.594Z,23.20
2018-05-13T13:00:15.519Z,23.20
2018-05-13T13:02:41.726Z,23.20
2018-05-13T13:05:07.945Z,23.30
2018-05-13T13:07:34.222Z,23.20
2018-05-13T13:10:00.368Z,23.30
2018-05-13T13:12:27.301Z,23.10
2018-05-13T13:14:53.521Z,23.10
2018-05-13T13:17:19.717Z,23.10
2018-05-13T13:19:45.939Z,22.90
2018-05-13T13:22:12.195Z,22.80
2018-05-13T13:24:38.354Z,22.90
2018-05-13T13:27:04.629Z,23.10
2018-05-13T13:29:30.850Z,23.20
2018-05-13T13:31:57.067Z,23.20
2018-05-13T13:34:23.267Z,23.30
2018-05-13T13:36:49.470Z,23.20
2018-05-13T13:39:15.682Z,23.30
2018-05-13T13:41:42.609Z,23.30
2018-05-13T13:44:08.816Z,23.30
2018-05-13T13:46:35.019Z,23.50
2018-05-13T13:49:01.221Z,23.40
2018-05-13T13:51:28.182Z,23.30
2018-05-13T13:53:55.111Z,23.20
2018-05-13T13:56:21.556Z,23.20
2018-05-13T13:58:48.493Z,23.40
2018-05-13T14:01:14.669Z,23.40
2018-05-13T14:03:40.881Z,23.50
2018-05-13T14:06:14.723Z,23.60
2018-05-13T14:08:40.950Z,23.50
2018-05-13T14:11:07.142Z,23.50
2018-05-13T14:13:33.351Z,23.30
2018-05-13T14:15:59.578Z,23.30
2018-05-13T14:18:25.782Z,23.30
2018-05-13T14:20:52.001Z,23.50
2018-05-13T14:23:18.206Z,23.60
2018-05-13T14:25:44.405Z,23.50
2018-05-13T14:28:10.604Z,23.40
2018-05-13T14:30:36.830Z,23.20
2018-05-13T14:33:03.848Z,23.20
2018-05-13T14:35:30.022Z,23.20
2018-05-13T14:37:56.263Z,23.10
2018-05-13T14:40:22.421Z,23.20
2018-05-13T14:42:48.659Z,23.30
2018-05-13T14:45:14.899Z,23.20
2018-05-13T14:47:41.121Z,23.30
2018-05-13T14:50:07.305Z,23.20
2018-05-13T14:52:34.259Z,23.10
2018-05-13T14:55:00.522Z,23.10
2018-05-13T14:57:26.918Z,23.10
2018-05-13T14:59:53.934Z,23.00
2018-05-13T15:02:20.136Z,22.90
2018-05-13T15:04:46.369Z,23.00
2018-05-13T15:07:18.574Z,23.10
2018-05-13T15:09:44.775Z,22.90
2018-05-13T15:12:10.990Z,22.80
2018-05-13T15:14:37.971Z,22.80
2018-05-13T15:17:04.201Z,22.70
2018-05-13T15:19:30.399Z,22.70
2018-05-13T15:21:57.370Z,22.60
2018-05-13T15:24:23.587Z,22.60
2018-05-13T15:26:50.563Z,22.70
2018-05-13T15:29:16.826Z,22.70
2018-05-13T15:31:43.043Z,22.70
2018-05-13T15:34:09.257Z,22.50
2018-05-13T15:36:35.484Z,22.30
2018-05-13T15:39:01.749Z,22.30
2018-05-13T15:41:27.960Z,22.20
2018-05-13T15:43:54.266Z,22.30
2018-05-13T15:46:21.237Z,22.30
2018-05-13T15:48:47.467Z,22.30
2018-05-13T15:51:13.722Z,22.40
2018-05-13T15:53:39.916Z,22.40
2018-05-13T15:56:06.893Z,22.40
2018-05-13T15:58:33.129Z,22.30
2018-05-13T16:00:59.354Z,22.40
2018-05-13T16:03:25.551Z,22.30
2018-05-13T16:05:51.869Z,22.30
2018-05-13T16:08:18.105Z,22.40
2018-05-13T16:10:44.389Z,22.30
2018-05-13T16:13:10.702Z,22.20
2018-05-13T16:15:37.643Z,22.20
2018-05-13T16:18:04.699Z,22.10
2018-05-13T16:20:30.918Z,22.10
2018-05-13T16:22:57.110Z,22.00
2018-05-13T16:25:23.341Z,22.00
2018-05-13T16:27:49.587Z,22.00
2018-05-13T16:30:15.837Z,22.00
2018-05-13T16:32:42.106Z,21.90
2018-05-13T16:35:09.034Z,21.80
2018-05-13T16:37:35.264Z,21.80
2018-05-13T16:40:01.467Z,21.90
2018-05-13T16:42:27.730Z,21.80
2018-05-13T16:44:54.061Z,21.80
2018-05-13T16:47:21.063Z,21.80
2018-05-13T16:49:47.265Z,21.70
2018-05-13T16:52:13.474Z,21.60
2018-05-13T16:54:40.453Z,21.40
2018-05-13T16:57:07.425Z,21.40
2018-05-13T16:59:33.679Z,21.30
2018-05-13T17:01:59.907Z,21.30
2018-05-13T17:04:26.215Z,21.30
2018-05-13T17:06:53.175Z,21.40
2018-05-13T17:09:20.215Z,21.30
2018-05-13T17:11:46.377Z,21.30
2018-05-13T17:14:12.579Z,21.40
2018-05-13T17:16:39.510Z,21.50
2018-05-13T17:19:05.716Z,21.40
2018-05-13T17:21:31.911Z,21.50
2018-05-13T17:23:58.885Z,21.40
2018-05-13T17:26:25.085Z,21.40
2018-05-13T17:28:52.038Z,21.50
2018-05-13T17:31:18.317Z,21.40
2018-05-13T17:33:44.537Z,21.50
2018-05-13T17:36:10.778Z,21.50
2018-05-13T17:38:37.013Z,21.50
2018-05-13T17:41:03.229Z,21.30
2018-05-13T17:43:29.438Z,21.30
2018-05-13T17:45:55.682Z,21.30
2018-05-13T17:48:21.932Z,21.50
2018-05-13T17:50:48.129Z,21.70
2018-05-13T17:53:15.100Z,21.70
2018-05-13T17:55:41.330Z,21.60
2018-05-13T17:58:07.893Z,21.50
2018-05-13T18:00:34.135Z,21.10
2018-05-13T18:03:00.390Z,21.00
2018-05-13T18:05:26.578Z,20.90
2018-05-13T18:07:52.787Z,20.90
2018-05-13T18:10:19.722Z,20.60
2018-05-13T18:12:45.955Z,20.60
2018-05-13T18:15:12.141Z,20.50
2018-05-13T18:17:38.328Z,20.10
2018-05-13T18:20:05.287Z,19.70
2018-05-13T18:22:32.242Z,19.50
2018-05-13T18:24:59.215Z,19.40
2018-05-13T18:27:26.146Z,19.30
2018-05-13T18:29:53.101Z,19.20
2018-05-13T18:32:20.035Z,19.00
2018-05-13T18:34:46.995Z,18.70
2018-05-13T18:37:13.202Z,18.70
2018-05-13T18:39:39.456Z,18.60
2018-05-13T18:42:06.436Z,18.10
2018-05-13T18:44:32.683Z,18.00
2018-05-13T18:46:58.927Z,17.90
2018-05-13T18:49:25.117Z,17.60
2018-05-13T18:51:51.340Z,17.40
2018-05-13T18:54:18.276Z,17.00
2018-05-13T18:56:44.489Z,16.90
2018-05-13T18:59:11.923Z,16.60
2018-05-13T19:01:38.051Z,16.50
2018-05-13T19:04:04.257Z,16.40
2018-05-13T19:06:31.263Z,16.10
2018-05-13T19:08:58.130Z,16.00
2018-05-13T19:11:24.319Z,15.90
2018-05-13T19:13:50.486Z,15.80
2018-05-13T19:16:16.698Z,15.60
2018-05-13T19:18:43.621Z,15.20
2018-05-13T19:21:09.814Z,15.10
2018-05-13T19:23:35.995Z,15.00
2018-05-13T19:26:02.169Z,14.80
2018-05-13T19:28:28.362Z,14.70
2018-05-13T19:30:54.555Z,14.60
2018-05-13T19:33:21.478Z,14.40
2018-05-13T19:35:48.505Z,14.30
2018-05-13T19:38:14.683Z,14.20
2018-05-13T19:40:41.590Z,14.10
2018-05-13T19:43:07.790Z,14.00
2018-05-13T19:45:33.976Z,14.10
2018-05-13T19:48:00.153Z,14.00
2018-05-13T19:50:26.321Z,13.90
2018-05-13T19:52:52.530Z,13.70
2018-05-13T19:55:18.703Z,13.60
2018-05-13T19:57:44.865Z,13.50
2018-05-13T20:00:11.801Z,13.50
2018-05-13T20:02:38.064Z,13.40
2018-05-13T20:05:04.216Z,13.50
2018-05-13T20:07:30.385Z,13.40
2018-05-13T20:09:56.627Z,13.20
2018-05-13T20:12:22.779Z,12.90
2018-05-13T20:14:49.681Z,12.70
2018-05-13T20:17:15.859Z,12.60
2018-05-13T20:19:42.773Z,12.40
2018-05-13T20:22:08.982Z,12.30
2018-05-13T20:24:35.178Z,12.20
2018-05-13T20:27:02.107Z,12.20
2018-05-13T20:29:28.308Z,12.10
2018-05-13T20:31:54.482Z,12.30
2018-05-13T20:34:21.397Z,12.30
2018-05-13T20:36:48.354Z,12.40
2018-05-13T20:39:14.526Z,12.40
2018-05-13T20:41:41.461Z,12.50
2018-05-13T20:44:08.425Z,12.50
2018-05-13T20:46:35.341Z,12.40
2018-05-13T20:49:02.366Z,12.20
2018-05-13T20:51:28.578Z,12.20
2018-05-13T20:53:54.757Z,12.20
2018-05-13T20:56:20.948Z,12.10
2018-05-13T20:58:47.130Z,12.00
2018-05-13T21:01:13.335Z,11.80
2018-05-13T21:03:39.509Z,11.60
2018-05-13T21:06:05.700Z,11.50
2018-05-13T21:08:31.891Z,11.40
2018-05-13T21:10:58.814Z,11.10
2018-05-13T21:13:24.989Z,11.00
2018-05-13T21:15:51.198Z,10.90
2018-05-13T21:18:18.126Z,10.50
2018-05-13T21:20:44.303Z,10.40
2018-05-13T21:23:10.475Z,10.20
2018-05-13T21:25:36.674Z,10.10
2018-05-13T21:28:02.862Z,9.90
2018-05-13T21:30:29.038Z,9.80
2018-05-13T21:32:55.226Z,9.60
2018-05-13T21:35:21.396Z,9.50
2018-05-13T21:37:47.605Z,9.40
2018-05-13T21:40:14.504Z,9.30
2018-05-13T21:42:40.661Z,9.20
2018-05-13T21:45:06.843Z,9.30
2018-05-13T21:47:33.002Z,9.30
2018-05-13T21:49:59.186Z,9.20
2018-05-13T21:52:26.109Z,9.20
2018-05-13T21:54:53.769Z,9.10
2018-05-13T21:57:20.009Z,9.10
2018-05-13T21:59:46.183Z,9.00
2018-05-13T22:02:12.406Z,8.90
2018-05-13T22:04:51.700Z,8.70
2018-05-13T22:07:17.984Z,8.60
2018-05-13T22:09:44.096Z,8.60
2018-05-13T22:12:10.993Z,8.50
2018-05-13T22:14:37.165Z,8.50
2018-05-13T22:17:03.355Z,8.60
2018-05-13T22:19:29.569Z,8.60
2018-05-13T22:21:55.749Z,8.80
2018-05-13T22:24:21.930Z,8.80
2018-05-13T22:26:48.087Z,8.70
2018-05-13T22:29:14.265Z,8.50
2018-05-13T22:31:41.173Z,8.30
2018-05-13T22:34:07.374Z,8.20
2018-05-13T22:36:33.564Z,8.00
2018-05-13T22:38:59.721Z,7.90
2018-05-13T22:41:26.647Z,7.60
2018-05-13T22:43:53.594Z,7.60
2018-05-13T22:46:19.802Z,7.50
2018-05-13T22:48:45.969Z,7.50
2018-05-13T22:51:12.136Z,7.60
2018-05-13T22:53:38.323Z,7.50
2018-05-13T22:56:05.260Z,7.40
2018-05-13T22:58:31.469Z,7.30
2018-05-13T23:00:57.661Z,7.40
2018-05-13T23:06:15.137Z,7.20
2018-05-13T23:08:41.309Z,7.20
2018-05-13T23:11:07.499Z,7.20
2018-05-13T23:13:33.675Z,7.10
2018-05-13T23:15:59.845Z,7.00
2018-05-13T23:18:26.009Z,6.90
2018-05-13T23:20:52.166Z,6.80
2018-05-13T23:23:18.353Z,6.80
2018-05-13T23:25:44.529Z,6.70
2018-05-13T23:28:11.479Z,6.70
2018-05-13T23:30:45.094Z,6.60
2018-05-13T23:33:11.260Z,6.70
2018-05-13T23:35:37.445Z,6.70
2018-05-13T23:38:03.619Z,6.70
2018-05-13T23:40:30.542Z,6.70
2018-05-13T23:42:56.743Z,6.60
2018-05-13T23:45:22.913Z,6.60
2018-05-13T23:47:49.825Z,6.50
2018-05-13T23:50:16.034Z,6.40
2018-05-13T23:52:42.210Z,6.50
2018-05-13T23:55:08.391Z,6.50
2018-05-13T23:57:34.568Z,6.50
